createdAt,value
2018-07-27T00:00:08.558Z,28.25
2018-07-27T00:00:49.061Z,28.19
2018-07-27T00:01:29.563Z,28.14
2018-07-27T00:02:10.052Z,28.06
2018-07-27T00:02:50.559Z,28.12
2018-07-27T00:03:31.048Z,28.04
2018-07-27T00:04:11.552Z,28.12
2018-07-27T00:04:52.107Z,28.11
2018-07-27T00:05:32.552Z,28.07
2018-07-27T00:06:13.038Z,28.06
2018-07-27T00:06:53.542Z,28.06
2018-07-27T00:07:34.036Z,28.11
2018-07-27T00:08:14.544Z,28.04
2018-07-27T00:08:55.035Z,28.07
2018-07-27T00:09:35.586Z,28.07
2018-07-27T00:10:16.062Z,28.11
2018-07-27T00:10:56.560Z,27.93
2018-07-27T00:11:37.067Z,27.96
2018-07-27T00:12:17.593Z,28.06
2018-07-27T00:12:58.084Z,27.96
2018-07-27T00:13:38.583Z,27.99
2018-07-27T00:14:19.102Z,28.03
2018-07-27T00:14:59.546Z,28.06
2018-07-27T00:15:40.047Z,27.97
2018-07-27T00:16:20.547Z,27.96
2018-07-27T00:17:01.049Z,28.02
2018-07-27T00:17:41.534Z,27.99
2018-07-27T00:18:22.026Z,28.03
2018-07-27T00:19:02.488Z,27.9
2018-07-27T00:19:43.037Z,27.88
2018-07-27T00:20:23.508Z,27.9
2018-07-27T00:21:03.990Z,27.77
2018-07-27T00:21:44.536Z,27.87
2018-07-27T00:22:25.005Z,27.88
2018-07-27T00:23:05.499Z,27.92
2018-07-27T00:23:46.031Z,27.92
2018-07-27T00:24:26.477Z,27.79
2018-07-27T00:25:06.989Z,27.85
2018-07-27T00:25:47.554Z,27.81
2018-07-27T00:26:28.017Z,27.79
2018-07-27T00:27:08.479Z,27.82
2018-07-27T00:27:49.020Z,27.84
2018-07-27T00:28:29.537Z,27.87
2018-07-27T00:29:09.985Z,27.85
2018-07-27T00:29:50.479Z,27.92
2018-07-27T00:30:31.027Z,27.88
2018-07-27T00:31:11.518Z,27.85
2018-07-27T00:31:52.032Z,27.81
2018-07-27T00:32:32.553Z,27.88
2018-07-27T00:33:13.029Z,27.9
2018-07-27T00:33:53.493Z,27.82
2018-07-27T00:34:34.039Z,27.87
2018-07-27T00:35:14.528Z,27.84
2018-07-27T00:35:55.742Z,27.75
2018-07-27T00:36:35.497Z,27.81
2018-07-27T00:37:16.023Z,27.77
2018-07-27T00:37:56.500Z,27.75
2018-07-27T00:38:37.021Z,27.67
2018-07-27T00:39:17.579Z,27.59
2018-07-27T00:39:58.007Z,27.59
2018-07-27T00:40:38.524Z,27.57
2018-07-27T00:41:19.033Z,27.59
2018-07-27T00:41:59.529Z,27.62
2018-07-27T00:42:40.021Z,27.66
2018-07-27T00:43:20.545Z,27.74
2018-07-27T00:44:00.995Z,27.66
2018-07-27T00:44:41.517Z,27.57
2018-07-27T00:45:21.993Z,27.44
2018-07-27T00:46:02.543Z,27.5
2018-07-27T00:46:43.009Z,27.49
2018-07-27T00:47:23.560Z,27.54
2018-07-27T00:48:04.068Z,27.4
2018-07-27T00:48:44.530Z,27.36
2018-07-27T00:49:25.059Z,27.36
2018-07-27T00:50:05.576Z,27.19
2018-07-27T00:50:46.088Z,27.17
2018-07-27T00:51:26.589Z,27.17
2018-07-27T00:52:07.051Z,27.14
2018-07-27T00:52:47.561Z,27.09
2018-07-27T00:53:28.108Z,26.94
2018-07-27T00:54:08.560Z,27.04
2018-07-27T00:54:49.078Z,27.09
2018-07-27T00:55:29.601Z,27.04
2018-07-27T00:56:10.067Z,27.19
2018-07-27T00:56:50.555Z,27.06
2018-07-27T00:57:31.080Z,27.13
2018-07-27T00:58:11.600Z,27.07
2018-07-27T00:58:52.052Z,27
2018-07-27T00:59:32.542Z,27.13
2018-07-27T01:00:13.078Z,27.18
2018-07-27T01:00:53.544Z,27.17
2018-07-27T01:01:34.046Z,27.13
2018-07-27T01:02:14.547Z,27.09
2018-07-27T01:02:55.068Z,27.12
2018-07-27T01:03:35.552Z,27.18
2018-07-27T01:04:16.079Z,27.12
2018-07-27T01:04:56.574Z,27.17
2018-07-27T01:05:37.060Z,27.21
2018-07-27T01:09:55.824Z,27.13
2018-07-27T01:10:36.265Z,27.17
2018-07-27T01:11:16.812Z,27.03
2018-07-27T01:11:57.495Z,27.04
2018-07-27T01:12:38.808Z,27.06
2018-07-27T01:13:19.319Z,27.07
2018-07-27T01:14:00.014Z,27.09
2018-07-27T01:14:43.023Z,27.17
2018-07-27T01:15:23.277Z,27.12
2018-07-27T01:16:04.846Z,27.22
2018-07-27T01:16:45.357Z,27.17
2018-07-27T01:17:27.032Z,27.25
2018-07-27T01:18:07.807Z,27.18
2018-07-27T01:18:48.434Z,27.24
2018-07-27T01:19:29.170Z,27.17
2018-07-27T01:20:09.533Z,27.25
2018-07-27T01:20:50.039Z,27.25
2018-07-27T01:21:30.570Z,27.09
2018-07-27T01:22:11.036Z,27.21
2018-07-27T01:22:51.539Z,27.09
2018-07-27T01:23:31.973Z,27.06
2018-07-27T01:24:12.485Z,27.03
2018-07-27T01:24:52.971Z,27.1
2018-07-27T01:25:33.548Z,27.09
2018-07-27T01:26:13.918Z,27.17
2018-07-27T01:26:54.416Z,27.1
2018-07-27T01:27:34.960Z,27.21
2018-07-27T01:28:15.459Z,27.14
2018-07-27T01:28:55.962Z,27.17
2018-07-27T01:29:36.433Z,27.19
2018-07-27T01:30:16.922Z,27.02
2018-07-27T01:30:57.457Z,27.09
2018-07-27T01:31:37.930Z,26.97
2018-07-27T01:32:18.410Z,27.06
2018-07-27T01:32:58.936Z,26.99
2018-07-27T01:33:39.430Z,26.97
2018-07-27T01:34:19.957Z,27.03
2018-07-27T01:35:00.421Z,26.97
2018-07-27T01:35:40.917Z,26.89
2018-07-27T01:36:21.580Z,26.99
2018-07-27T01:37:02.057Z,27
2018-07-27T01:37:42.528Z,27.02
2018-07-27T01:38:23.026Z,27.04
2018-07-27T01:39:03.516Z,27.07
2018-07-27T01:39:44.015Z,27.06
2018-07-27T01:40:24.498Z,27.02
2018-07-27T01:41:05.080Z,27.06
2018-07-27T01:41:45.506Z,27.14
2018-07-27T01:42:26.043Z,27
2018-07-27T01:43:06.502Z,27.06
2018-07-27T01:43:47.050Z,27.03
2018-07-27T01:44:27.537Z,27.06
2018-07-27T01:45:08.058Z,27.09
2018-07-27T01:45:48.522Z,27.06
2018-07-27T01:46:29.022Z,27.04
2018-07-27T01:47:09.520Z,27.12
2018-07-27T01:47:50.002Z,27.07
2018-07-27T01:48:30.488Z,27.09
2018-07-27T01:49:11.052Z,27.1
2018-07-27T01:49:51.497Z,27.07
2018-07-27T01:50:32.016Z,27.04
2018-07-27T01:51:12.505Z,27.13
2018-07-27T01:51:52.990Z,27.06
2018-07-27T01:52:33.425Z,27.06
2018-07-27T01:53:13.942Z,27.06
2018-07-27T01:53:54.426Z,27.03
2018-07-27T01:54:34.989Z,27.09
2018-07-27T01:55:15.466Z,27.02
2018-07-27T01:55:56.025Z,26.91
2018-07-27T01:56:36.488Z,26.88
2018-07-27T01:57:16.961Z,26.89
2018-07-27T01:57:57.433Z,26.91
2018-07-27T01:58:37.883Z,26.92
2018-07-27T01:59:18.401Z,26.95
2018-07-27T01:59:58.876Z,26.99
2018-07-27T02:00:39.386Z,26.99
2018-07-27T02:01:19.854Z,26.92
2018-07-27T02:02:00.361Z,26.99
2018-07-27T02:02:40.868Z,27.02
2018-07-27T02:03:21.373Z,26.99
2018-07-27T02:04:01.857Z,26.88
2018-07-27T02:04:42.369Z,26.92
2018-07-27T02:05:22.857Z,26.92
2018-07-27T02:06:03.400Z,26.91
2018-07-27T02:06:43.924Z,26.77
2018-07-27T02:07:24.423Z,26.92
2018-07-27T02:08:04.901Z,26.92
2018-07-27T02:08:45.429Z,26.89
2018-07-27T02:09:25.921Z,26.92
2018-07-27T02:10:06.410Z,26.84
2018-07-27T02:10:46.972Z,26.92
2018-07-27T02:11:27.467Z,26.95
2018-07-27T02:12:07.919Z,26.97
2018-07-27T02:12:48.452Z,26.97
2018-07-27T02:13:28.897Z,26.85
2018-07-27T02:14:09.380Z,26.87
2018-07-27T02:14:49.853Z,26.85
2018-07-27T02:15:30.369Z,26.88
2018-07-27T02:16:10.837Z,26.82
2018-07-27T02:16:51.349Z,26.77
2018-07-27T02:17:31.811Z,26.77
2018-07-27T02:18:12.317Z,26.73
2018-07-27T02:18:52.798Z,26.69
2018-07-27T02:19:33.305Z,26.72
2018-07-27T02:20:13.763Z,26.73
2018-07-27T02:20:54.235Z,26.65
2018-07-27T02:21:34.758Z,26.73
2018-07-27T02:22:15.238Z,26.85
2018-07-27T02:22:55.746Z,26.75
2018-07-27T02:23:36.304Z,26.8
2018-07-27T02:24:16.752Z,26.73
2018-07-27T02:24:57.247Z,26.75
2018-07-27T02:25:37.720Z,26.81
2018-07-27T02:26:18.195Z,26.8
2018-07-27T02:26:58.694Z,26.81
2018-07-27T02:27:39.160Z,26.82
2018-07-27T02:28:19.679Z,26.7
2018-07-27T02:29:00.155Z,26.8
2018-07-27T02:29:40.648Z,26.81
2018-07-27T02:30:21.152Z,26.69
2018-07-27T02:31:01.637Z,26.75
2018-07-27T02:31:42.162Z,26.75
2018-07-27T02:32:22.632Z,26.57
2018-07-27T02:33:03.131Z,26.58
2018-07-27T02:33:43.787Z,26.57
2018-07-27T02:34:24.203Z,26.6
2018-07-27T02:35:04.739Z,26.54
2018-07-27T02:35:45.171Z,26.65
2018-07-27T02:36:25.676Z,26.67
2018-07-27T02:37:06.295Z,26.72
2018-07-27T02:37:46.773Z,26.75
2018-07-27T02:38:27.244Z,26.75
2018-07-27T02:39:07.734Z,26.73
2018-07-27T02:39:48.220Z,26.81
2018-07-27T02:40:28.714Z,26.72
2018-07-27T02:41:09.227Z,26.81
2018-07-27T02:41:49.690Z,26.82
2018-07-27T02:42:30.209Z,26.69
2018-07-27T02:43:10.705Z,26.67
2018-07-27T02:43:51.217Z,26.72
2018-07-27T02:44:32.538Z,26.72
2018-07-27T02:45:13.044Z,26.7
2018-07-27T02:45:53.555Z,26.72
2018-07-27T02:46:34.100Z,26.77
2018-07-27T02:47:14.560Z,26.8
2018-07-27T02:47:54.993Z,26.85
2018-07-27T02:48:35.549Z,26.87
2018-07-27T02:49:16.044Z,26.76
2018-07-27T02:49:56.547Z,26.69
2018-07-27T02:50:37.040Z,26.73
2018-07-27T02:51:17.529Z,26.77
2018-07-27T02:51:58.045Z,26.81
2018-07-27T02:52:38.507Z,26.77
2018-07-27T02:53:18.987Z,26.72
2018-07-27T02:53:59.487Z,26.7
2018-07-27T02:54:39.970Z,26.81
2018-07-27T02:55:20.497Z,26.73
2018-07-27T02:56:01.039Z,26.6
2018-07-27T02:56:41.532Z,26.54
2018-07-27T02:57:22.092Z,26.57
2018-07-27T02:58:02.585Z,26.55
2018-07-27T02:58:43.053Z,26.65
2018-07-27T02:59:23.516Z,26.6
2018-07-27T03:00:03.992Z,26.7
2018-07-27T03:00:44.511Z,26.72
2018-07-27T03:01:24.976Z,26.69
2018-07-27T03:02:05.491Z,26.75
2018-07-27T03:02:45.970Z,26.65
2018-07-27T03:03:26.479Z,26.67
2018-07-27T03:04:06.915Z,26.72
2018-07-27T03:04:47.439Z,26.67
2018-07-27T03:05:28.023Z,26.51
2018-07-27T03:06:08.449Z,26.58
2018-07-27T03:06:48.979Z,26.54
2018-07-27T03:07:29.475Z,26.51
2018-07-27T03:08:09.972Z,26.45
2018-07-27T03:08:50.495Z,26.55
2018-07-27T03:09:30.980Z,26.44
2018-07-27T03:10:11.496Z,26.35
2018-07-27T03:10:51.969Z,26.35
2018-07-27T03:11:32.511Z,26.44
2018-07-27T03:12:12.979Z,26.37
2018-07-27T03:12:53.497Z,26.37
2018-07-27T03:13:33.966Z,26.51
2018-07-27T03:14:14.466Z,26.52
2018-07-27T03:14:55.010Z,26.5
2018-07-27T03:15:35.525Z,26.4
2018-07-27T03:16:16.048Z,26.48
2018-07-27T03:16:56.492Z,26.47
2018-07-27T03:17:37.026Z,26.47
2018-07-27T03:18:17.520Z,26.4
2018-07-27T03:18:57.974Z,26.39
2018-07-27T03:19:38.437Z,26.36
2018-07-27T03:20:18.956Z,26.5
2018-07-27T03:20:59.445Z,26.51
2018-07-27T03:21:39.986Z,26.4
2018-07-27T03:22:20.501Z,26.39
2018-07-27T03:23:00.986Z,26.37
2018-07-27T03:23:41.515Z,26.39
2018-07-27T03:24:21.958Z,26.55
2018-07-27T03:25:02.492Z,26.5
2018-07-27T03:25:43.082Z,26.33
2018-07-27T03:26:23.583Z,26.36
2018-07-27T03:27:04.067Z,26.32
2018-07-27T03:27:44.561Z,26.17
2018-07-27T03:28:25.075Z,26.09
2018-07-27T03:29:05.532Z,26.13
2018-07-27T03:31:18.872Z,26.28
2018-07-27T03:31:59.328Z,26.32
2018-07-27T03:32:39.819Z,26.21
2018-07-27T03:33:20.421Z,26.32
2018-07-27T03:34:00.926Z,26.32
2018-07-27T03:34:41.450Z,26.3
2018-07-27T03:35:21.890Z,26.36
2018-07-27T03:36:02.409Z,26.4
2018-07-27T03:36:42.899Z,26.4
2018-07-27T03:37:23.414Z,26.4
2018-07-27T03:38:03.932Z,26.4
2018-07-27T03:38:44.447Z,26.36
2018-07-27T03:39:24.868Z,26.33
2018-07-27T03:40:05.380Z,26.43
2018-07-27T03:40:45.859Z,26.33
2018-07-27T03:41:26.409Z,26.32
2018-07-27T03:42:06.919Z,26.32
2018-07-27T03:42:47.391Z,26.1
2018-07-27T03:43:27.840Z,26.35
2018-07-27T03:44:08.349Z,26.36
2018-07-27T03:44:48.847Z,26.3
2018-07-27T03:45:29.368Z,26.32
2018-07-27T03:46:09.836Z,26.3
2018-07-27T03:46:50.397Z,26.32
2018-07-27T03:47:30.874Z,26.28
2018-07-27T03:48:11.408Z,26.32
2018-07-27T03:48:51.912Z,26.09
2018-07-27T03:49:32.458Z,26.29
2018-07-27T03:50:12.900Z,26.25
2018-07-27T03:50:53.441Z,26.28
2018-07-27T03:51:33.907Z,26.32
2018-07-27T03:52:14.417Z,26.21
2018-07-27T03:52:54.960Z,26.33
2018-07-27T03:53:35.480Z,26.33
2018-07-27T03:54:15.935Z,26.35
2018-07-27T03:54:56.438Z,26.32
2018-07-27T03:55:36.936Z,26.23
2018-07-27T03:56:17.480Z,26.25
2018-07-27T03:56:57.933Z,26.25
2018-07-27T03:57:38.454Z,26.26
2018-07-27T03:58:18.985Z,26.26
2018-07-27T03:58:59.394Z,26.25
2018-07-27T03:59:39.916Z,26.29
2018-07-27T04:00:20.441Z,26.26
2018-07-27T04:01:00.904Z,26.17
2018-07-27T04:01:41.389Z,26.25
2018-07-27T04:02:21.915Z,26.21
2018-07-27T04:03:02.381Z,26.25
2018-07-27T04:03:42.883Z,26.3
2018-07-27T04:04:23.350Z,26.29
2018-07-27T04:05:03.845Z,26.3
2018-07-27T04:05:44.397Z,26.3
2018-07-27T04:06:24.876Z,26.28
2018-07-27T04:07:05.386Z,26.23
2018-07-27T04:07:45.891Z,26.36
2018-07-27T04:08:26.369Z,26.36
2018-07-27T04:09:06.832Z,26.29
2018-07-27T04:09:47.334Z,26.23
2018-07-27T04:10:27.842Z,26.36
2018-07-27T04:11:08.319Z,26.33
2018-07-27T04:11:48.791Z,26.35
2018-07-27T04:12:29.342Z,26.2
2018-07-27T04:13:09.802Z,26.25
2018-07-27T04:13:50.355Z,26.3
2018-07-27T04:14:30.773Z,26.3
2018-07-27T04:15:11.321Z,26.32
2018-07-27T04:15:51.813Z,26.32
2018-07-27T04:16:32.280Z,26.21
2018-07-27T04:17:12.797Z,26.21
2018-07-27T04:17:53.262Z,26.26
2018-07-27T04:18:33.752Z,26.12
2018-07-27T04:19:14.250Z,26.17
2018-07-27T04:19:54.791Z,26.06
2018-07-27T04:20:35.250Z,26.1
2018-07-27T04:21:15.759Z,26.05
2018-07-27T04:21:56.244Z,26.05
2018-07-27T04:22:36.717Z,26.12
2018-07-27T04:23:17.210Z,26.1
2018-07-27T04:23:57.688Z,25.91
2018-07-27T04:24:38.232Z,26.01
2018-07-27T04:25:18.685Z,25.97
2018-07-27T04:25:59.181Z,26.06
2018-07-27T04:26:39.650Z,25.98
2018-07-27T04:27:20.150Z,25.95
2018-07-27T04:28:00.651Z,25.92
2018-07-27T04:28:41.138Z,26.01
2018-07-27T04:29:21.633Z,26.05
2018-07-27T04:30:02.082Z,26.05
2018-07-27T04:30:42.583Z,25.9
2018-07-27T04:31:23.081Z,25.75
2018-07-27T04:32:03.628Z,25.76
2018-07-27T04:32:44.066Z,25.79
2018-07-27T04:33:24.584Z,25.9
2018-07-27T04:34:05.085Z,25.98
2018-07-27T04:34:45.511Z,26.01
2018-07-27T04:35:26.001Z,26.12
2018-07-27T04:36:06.519Z,26.3
2018-07-27T04:36:47.001Z,26.15
2018-07-27T04:37:27.529Z,26.17
2018-07-27T04:38:08.017Z,26.23
2018-07-27T04:38:48.555Z,26.3
2018-07-27T04:39:29.062Z,26.39
2018-07-27T04:40:09.569Z,26.43
2018-07-27T04:40:50.039Z,26.48
2018-07-27T04:41:30.564Z,26.39
2018-07-27T04:42:11.066Z,26.37
2018-07-27T04:42:51.572Z,26.36
2018-07-27T04:43:32.014Z,26.43
2018-07-27T04:44:12.482Z,26.36
2018-07-27T04:44:53.008Z,26.37
2018-07-27T04:45:33.486Z,26.36
2018-07-27T04:46:13.965Z,26.39
2018-07-27T04:46:54.461Z,26.36
2018-07-27T04:47:34.932Z,26.44
2018-07-27T04:48:15.424Z,26.37
2018-07-27T04:48:55.967Z,26.4
2018-07-27T04:49:36.485Z,26.36
2018-07-27T04:50:17.006Z,26.5
2018-07-27T04:50:57.474Z,26.36
2018-07-27T04:51:37.947Z,26.28
2018-07-27T04:52:18.433Z,26.35
2018-07-27T04:52:58.964Z,26.36
2018-07-27T04:53:39.426Z,26.25
2018-07-27T04:54:19.970Z,26.3
2018-07-27T04:55:00.439Z,26.29
2018-07-27T04:55:40.933Z,26.3
2018-07-27T04:56:21.403Z,26.33
2018-07-27T04:57:01.912Z,26.36
2018-07-27T04:57:42.440Z,26.44
2018-07-27T04:58:22.933Z,26.55
2018-07-27T04:59:03.410Z,26.5
2018-07-27T04:59:43.899Z,26.6
2018-07-27T05:00:24.406Z,26.57
2018-07-27T05:01:04.934Z,26.57
2018-07-27T05:01:45.418Z,26.57
2018-07-27T05:02:25.902Z,26.57
2018-07-27T05:03:06.371Z,26.57
2018-07-27T05:03:46.930Z,26.57
2018-07-27T05:04:27.401Z,26.67
2018-07-27T05:05:07.905Z,26.57
2018-07-27T05:05:48.400Z,26.51
2018-07-27T05:06:28.909Z,26.54
2018-07-27T05:07:09.365Z,26.66
2018-07-27T05:07:49.888Z,26.55
2018-07-27T05:08:30.356Z,26.66
2018-07-27T05:09:10.828Z,26.69
2018-07-27T05:09:51.360Z,26.7
2018-07-27T05:10:31.822Z,26.73
2018-07-27T05:11:12.395Z,26.65
2018-07-27T05:11:52.908Z,26.69
2018-07-27T05:12:33.343Z,26.87
2018-07-27T05:13:13.844Z,26.87
2018-07-27T05:13:54.349Z,26.88
2018-07-27T05:14:34.871Z,26.69
2018-07-27T05:15:15.346Z,26.69
2018-07-27T05:15:55.832Z,26.66
2018-07-27T05:16:36.305Z,26.7
2018-07-27T05:17:16.842Z,26.75
2018-07-27T05:17:57.343Z,26.72
2018-07-27T05:18:37.818Z,26.67
2018-07-27T05:19:18.294Z,26.7
2018-07-27T05:19:58.830Z,26.75
2018-07-27T05:20:39.310Z,26.77
2018-07-27T05:21:19.809Z,26.8
2018-07-27T05:22:00.330Z,26.72
2018-07-27T05:22:40.859Z,26.72
2018-07-27T05:23:21.331Z,26.75
2018-07-27T05:24:01.911Z,26.8
2018-07-27T05:24:42.452Z,26.8
2018-07-27T05:25:23.253Z,26.82
2018-07-27T05:26:03.749Z,26.89
2018-07-27T05:26:44.297Z,26.81
2018-07-27T05:27:24.979Z,26.82
2018-07-27T05:28:05.592Z,26.7
2018-07-27T05:28:46.013Z,26.76
2018-07-27T05:29:26.518Z,26.7
2018-07-27T05:30:07.022Z,26.84
2018-07-27T05:30:47.581Z,26.77
2018-07-27T05:31:28.032Z,26.72
2018-07-27T05:32:08.499Z,26.76
2018-07-27T05:32:49.015Z,26.75
2018-07-27T05:33:29.445Z,26.73
2018-07-27T05:34:09.966Z,26.8
2018-07-27T05:34:50.461Z,26.67
2018-07-27T05:35:30.952Z,26.67
2018-07-27T05:36:11.469Z,26.7
2018-07-27T05:36:51.988Z,26.76
2018-07-27T05:37:32.534Z,26.81
2018-07-27T05:38:12.979Z,26.69
2018-07-27T05:38:53.490Z,26.76
2018-07-27T05:39:33.936Z,26.7
2018-07-27T05:40:14.445Z,26.67
2018-07-27T05:40:54.957Z,26.72
2018-07-27T05:41:35.452Z,26.7
2018-07-27T05:42:15.909Z,26.75
2018-07-27T05:42:56.427Z,26.76
2018-07-27T05:43:36.937Z,26.66
2018-07-27T05:44:17.437Z,26.73
2018-07-27T05:44:57.939Z,26.7
2018-07-27T05:45:38.467Z,26.72
2018-07-27T05:46:18.932Z,26.7
2018-07-27T05:46:59.536Z,26.75
2018-07-27T05:47:39.990Z,26.57
2018-07-27T05:48:20.465Z,26.62
2018-07-27T05:49:00.981Z,26.67
2018-07-27T05:49:41.478Z,26.55
2018-07-27T05:50:21.996Z,26.7
2018-07-27T05:51:02.505Z,26.7
2018-07-27T05:51:42.965Z,26.72
2018-07-27T05:52:23.473Z,26.76
2018-07-27T05:53:03.917Z,26.84
2018-07-27T05:53:44.461Z,26.91
2018-07-27T05:54:24.954Z,26.87
2018-07-27T05:55:05.519Z,27.06
2018-07-27T05:55:46.036Z,27.18
2018-07-27T05:56:26.561Z,27.25
2018-07-27T05:57:06.998Z,27.36
2018-07-27T05:57:47.505Z,27.43
2018-07-27T05:58:27.995Z,27.62
2018-07-27T05:59:08.544Z,27.81
2018-07-27T05:59:48.996Z,27.81
2018-07-27T06:00:29.516Z,27.99
2018-07-27T06:01:10.115Z,28.11
2018-07-27T06:01:50.530Z,28.27
2018-07-27T06:02:30.995Z,28.3
2018-07-27T06:03:11.537Z,28.41
2018-07-27T06:03:51.992Z,28.54
2018-07-27T06:04:32.507Z,28.41
2018-07-27T06:05:12.952Z,28.39
2018-07-27T06:05:53.475Z,28.43
2018-07-27T06:06:33.980Z,28.41
2018-07-27T06:07:14.509Z,28.54
2018-07-27T06:07:55.094Z,28.66
2018-07-27T06:08:35.670Z,28.76
2018-07-27T06:09:16.140Z,28.78
2018-07-27T06:09:56.652Z,28.73
2018-07-27T06:10:37.164Z,28.67
2018-07-27T06:11:17.735Z,28.71
2018-07-27T06:11:58.173Z,29
2018-07-27T06:12:38.615Z,29.06
2018-07-27T06:13:19.125Z,29.19
2018-07-27T06:13:59.567Z,29.19
2018-07-27T06:14:40.103Z,29.27
2018-07-27T06:15:20.641Z,29.39
2018-07-27T06:16:01.171Z,29.46
2018-07-27T06:16:41.670Z,29.52
2018-07-27T06:17:22.212Z,29.61
2018-07-27T06:18:02.780Z,29.73
2018-07-27T06:18:43.174Z,29.71
2018-07-27T06:19:23.674Z,29.82
2018-07-27T06:20:04.220Z,29.85
2018-07-27T06:20:44.698Z,29.98
2018-07-27T06:21:25.168Z,30.04
2018-07-27T06:22:05.666Z,29.95
2018-07-27T06:22:46.190Z,29.94
2018-07-27T06:23:26.723Z,29.97
2018-07-27T06:24:07.298Z,30.01
2018-07-27T06:24:47.724Z,29.98
2018-07-27T06:25:28.233Z,29.89
2018-07-27T06:26:08.737Z,29.9
2018-07-27T06:26:49.243Z,29.9
2018-07-27T06:27:29.729Z,30.1
2018-07-27T06:28:10.280Z,30.01
2018-07-27T06:28:50.890Z,29.83
2018-07-27T06:29:31.308Z,29.83
2018-07-27T06:30:11.845Z,29.71
2018-07-27T06:30:52.357Z,29.65
2018-07-27T06:31:32.823Z,29.73
2018-07-27T06:32:13.360Z,29.78
2018-07-27T06:32:53.827Z,29.64
2018-07-27T06:33:34.323Z,29.76
2018-07-27T06:34:15.768Z,29.55
2018-07-27T06:34:56.274Z,29.6
2018-07-27T06:35:36.804Z,29.52
2018-07-27T06:36:17.389Z,29.45
2018-07-27T06:36:57.758Z,29.39
2018-07-27T06:37:38.316Z,29.28
2018-07-27T06:38:18.756Z,29.3
2018-07-27T06:38:59.240Z,29.28
2018-07-27T06:39:39.723Z,29.31
2018-07-27T06:40:20.298Z,29.14
2018-07-27T06:41:00.742Z,29.16
2018-07-27T06:41:41.339Z,29.18
2018-07-27T06:42:21.796Z,29.15
2018-07-27T06:43:02.429Z,29.31
2018-07-27T06:43:42.974Z,29.19
2018-07-27T06:44:23.598Z,29.18
2018-07-27T06:45:04.179Z,29.41
2018-07-27T06:45:44.603Z,29.45
2018-07-27T06:46:25.142Z,29.36
2018-07-27T06:47:05.631Z,29.24
2018-07-27T06:47:46.193Z,29.19
2018-07-27T06:48:26.817Z,29.26
2018-07-27T06:49:07.264Z,29.26
2018-07-27T06:49:47.717Z,29.27
2018-07-27T06:50:28.294Z,29.14
2018-07-27T06:51:08.843Z,29.18
2018-07-27T06:51:49.312Z,29.15
2018-07-27T06:52:29.922Z,29.24
2018-07-27T06:53:10.512Z,29.3
2018-07-27T06:53:50.959Z,29.37
2018-07-27T06:54:32.331Z,29.55
2018-07-27T06:55:12.771Z,29.6
2018-07-27T06:55:53.241Z,29.71
2018-07-27T06:56:33.839Z,29.79
2018-07-27T06:57:14.349Z,29.98
2018-07-27T06:57:55.102Z,30.1
2018-07-27T06:58:35.616Z,30.08
2018-07-27T06:59:16.049Z,30.08
2018-07-27T06:59:56.591Z,30.07
2018-07-27T07:00:37.060Z,30.17
2018-07-27T07:01:17.559Z,30.26
2018-07-27T07:01:58.168Z,30.19
2018-07-27T07:02:38.767Z,30.31
2018-07-27T07:03:19.224Z,30.34
2018-07-27T07:03:59.713Z,30.24
2018-07-27T07:04:40.213Z,30.29
2018-07-27T07:05:20.718Z,30.38
2018-07-27T07:06:01.167Z,30.54
2018-07-27T07:06:41.713Z,30.53
2018-07-27T07:07:22.197Z,30.69
2018-07-27T07:08:02.762Z,30.67
2018-07-27T07:08:43.213Z,30.82
2018-07-27T07:09:23.736Z,30.77
2018-07-27T07:10:04.226Z,30.64
2018-07-27T07:10:44.770Z,30.64
2018-07-27T07:11:25.287Z,30.72
2018-07-27T07:12:05.784Z,30.67
2018-07-27T07:12:46.287Z,30.64
2018-07-27T07:13:26.798Z,30.62
2018-07-27T07:14:07.298Z,30.65
2018-07-27T07:14:47.831Z,30.67
2018-07-27T07:15:28.509Z,30.77
2018-07-27T07:16:09.119Z,30.91
2018-07-27T07:16:49.652Z,30.98
2018-07-27T07:17:30.308Z,30.94
2018-07-27T07:18:10.714Z,31.02
2018-07-27T07:18:51.252Z,30.89
2018-07-27T07:19:31.940Z,30.92
2018-07-27T07:20:12.420Z,30.89
2018-07-27T07:20:52.886Z,30.91
2018-07-27T07:21:33.721Z,30.94
2018-07-27T07:22:14.241Z,30.97
2018-07-27T07:22:54.759Z,30.98
2018-07-27T07:23:35.193Z,31.07
2018-07-27T07:24:15.724Z,31.07
2018-07-27T07:24:56.316Z,31.07
2018-07-27T07:25:36.962Z,31.06
2018-07-27T07:26:17.219Z,31.04
2018-07-27T07:26:57.756Z,30.83
2018-07-27T07:27:38.253Z,30.7
2018-07-27T07:28:18.956Z,30.77
2018-07-27T07:28:59.562Z,30.86
2018-07-27T07:29:39.958Z,30.92
2018-07-27T07:30:20.472Z,31.04
2018-07-27T07:31:01.059Z,30.98
2018-07-27T07:31:41.463Z,31.09
2018-07-27T07:32:22.000Z,31.09
2018-07-27T07:33:02.522Z,31.1
2018-07-27T07:33:43.057Z,31.21
2018-07-27T07:34:23.620Z,31.1
2018-07-27T07:35:04.172Z,31.16
2018-07-27T07:35:44.625Z,31.14
2018-07-27T07:36:25.088Z,31.12
2018-07-27T07:37:05.645Z,31.06
2018-07-27T07:37:46.124Z,30.99
2018-07-27T07:38:26.583Z,30.82
2018-07-27T07:39:07.197Z,31.01
2018-07-27T07:39:47.686Z,31.04
2018-07-27T07:40:28.129Z,31.09
2018-07-27T07:41:08.602Z,30.89
2018-07-27T07:41:49.114Z,30.95
2018-07-27T07:42:29.668Z,30.92
2018-07-27T07:43:10.287Z,30.92
2018-07-27T07:43:50.880Z,31.07
2018-07-27T07:44:31.277Z,31.07
2018-07-27T07:45:11.842Z,31.04
2018-07-27T07:45:52.305Z,30.97
2018-07-27T07:46:32.862Z,30.98
2018-07-27T07:47:13.310Z,31.09
2018-07-27T07:47:53.787Z,31.13
2018-07-27T07:48:34.328Z,31.02
2018-07-27T07:49:14.859Z,31.06
2018-07-27T07:49:55.303Z,31.07
2018-07-27T07:50:35.902Z,31.13
2018-07-27T07:51:16.314Z,31.16
2018-07-27T07:51:56.849Z,31.21
2018-07-27T07:52:37.276Z,31.19
2018-07-27T07:53:17.893Z,31.29
2018-07-27T07:53:58.384Z,31.39
2018-07-27T07:54:38.876Z,31.44
2018-07-27T07:55:19.376Z,31.41
2018-07-27T07:56:00.096Z,31.28
2018-07-27T07:56:40.474Z,31.34
2018-07-27T07:57:21.033Z,31.09
2018-07-27T07:58:01.596Z,31.12
2018-07-27T07:58:42.068Z,31.17
2018-07-27T07:59:22.530Z,31.26
2018-07-27T08:00:03.052Z,31.26
2018-07-27T08:00:43.550Z,31.41
2018-07-27T08:01:24.068Z,31.39
2018-07-27T08:02:06.221Z,31.43
2018-07-27T08:02:46.754Z,31.43
2018-07-27T08:03:27.350Z,31.51
2018-07-27T08:04:07.865Z,31.41
2018-07-27T08:04:48.455Z,31.5
2018-07-27T08:05:29.017Z,31.65
2018-07-27T08:06:09.416Z,31.62
2018-07-27T08:06:49.957Z,31.35
2018-07-27T08:07:30.398Z,31.34
2018-07-27T08:08:10.901Z,31.39
2018-07-27T08:08:51.414Z,31.34
2018-07-27T08:09:31.926Z,31.35
2018-07-27T08:10:12.411Z,31.35
2018-07-27T08:10:52.901Z,31.47
2018-07-27T08:11:33.649Z,31.44
2018-07-27T08:12:14.116Z,31.38
2018-07-27T08:12:54.661Z,31.29
2018-07-27T08:13:35.221Z,31.14
2018-07-27T08:14:15.642Z,31.21
2018-07-27T08:14:56.182Z,31.25
2018-07-27T08:15:36.693Z,31.29
2018-07-27T08:16:17.173Z,31.35
2018-07-27T08:17:05.244Z,31.41
2018-07-27T08:17:45.731Z,31.34
2018-07-27T08:18:26.255Z,31.41
2018-07-27T08:19:06.738Z,31.44
2018-07-27T08:19:47.248Z,31.2
2018-07-27T08:20:27.779Z,31.26
2018-07-27T08:21:08.279Z,31.35
2018-07-27T08:21:48.834Z,31.19
2018-07-27T08:22:29.373Z,31.09
2018-07-27T08:23:09.882Z,31.09
2018-07-27T08:23:50.332Z,31.04
2018-07-27T08:24:30.848Z,30.77
2018-07-27T08:25:11.316Z,30.92
2018-07-27T08:25:51.761Z,30.89
2018-07-27T08:26:32.270Z,31.02
2018-07-27T08:27:12.819Z,30.86
2018-07-27T08:27:53.294Z,30.91
2018-07-27T08:28:33.927Z,31.02
2018-07-27T08:29:14.419Z,30.95
2018-07-27T08:29:54.975Z,30.91
2018-07-27T08:30:35.489Z,30.89
2018-07-27T08:31:15.991Z,30.88
2018-07-27T08:31:56.466Z,30.86
2018-07-27T08:32:36.969Z,30.86
2018-07-27T08:33:17.471Z,30.86
2018-07-27T08:33:58.004Z,30.8
2018-07-27T08:34:38.511Z,30.77
2018-07-27T08:35:19.015Z,30.77
2018-07-27T08:35:59.524Z,30.73
2018-07-27T08:36:40.075Z,30.75
2018-07-27T08:37:20.642Z,30.88
2018-07-27T08:38:01.088Z,30.88
2018-07-27T08:38:41.582Z,30.92
2018-07-27T08:39:22.127Z,30.97
2018-07-27T08:40:02.634Z,31.07
2018-07-27T08:40:43.170Z,31.1
2018-07-27T08:41:23.636Z,31.09
2018-07-27T08:42:04.172Z,31.1
2018-07-27T08:42:44.842Z,31.04
2018-07-27T08:43:25.285Z,31.02
2018-07-27T08:44:05.803Z,31.02
2018-07-27T08:44:46.294Z,31.17
2018-07-27T08:45:26.806Z,31.21
2018-07-27T08:46:07.282Z,31.19
2018-07-27T08:46:47.758Z,31.23
2018-07-27T08:47:28.278Z,31.26
2018-07-27T08:48:08.754Z,31.17
2018-07-27T08:48:49.267Z,31.2